sensor_id;sensor_type;location;lat;lon;timestamp;P1;durP1;ratioP1;P2;durP2;ratioP2
12451;SDS011;6291;48.924;12.204;2022-08-02T00:00:00;1.73;;;1.60;;
12451;SDS011;6291;48.924;12.204;2022-08-02T00:05:07;2.03;;;1.60;;
12451;SDS011;6291;48.924;12.204;2022-08-02T00:10:11;1.80;;;1.70;;
12451;SDS011;6291;48.924;12.204;2022-08-02T00:15:15;2.60;;;1.77;;
12451;SDS011;6291;48.924;12.204;2022-08-02T00:20:19;2.00;;;1.73;;
12451;SDS011;6291;48.924;12.204;2022-08-02T00:25:23;3.00;;;2.00;;
12451;SDS011;6291;48.924;12.204;2022-08-02T00:30:26;3.50;;;1.70;;
12451;SDS011;6291;48.924;12.204;2022-08-02T00:35:31;2.40;;;1.73;;
12451;SDS011;6291;48.924;12.204;2022-08-02T00:40:45;1.88;;;1.60;;
12451;SDS011;6291;48.924;12.204;2022-08-02T00:45:48;2.27;;;1.60;;
12451;SDS011;6291;48.924;12.204;2022-08-02T00:51:05;1.90;;;1.60;;
12451;SDS011;6291;48.924;12.204;2022-08-02T00:56:09;1.90;;;1.63;;
12451;SDS011;6291;48.924;12.204;2022-08-02T01:01:13;2.13;;;1.67;;
12451;SDS011;6291;48.924;12.204;2022-08-02T01:06:18;2.30;;;1.50;;
12451;SDS011;6291;48.924;12.204;2022-08-02T01:11:22;1.60;;;1.50;;
12451;SDS011;6291;48.924;12.204;2022-08-02T01:16:26;2.67;;;1.63;;
12451;SDS011;6291;48.924;12.204;2022-08-02T01:36:53;2.20;;;1.90;;
12451;SDS011;6291;48.924;12.204;2022-08-02T01:42:00;1.70;;;1.60;;
12451;SDS011;6291;48.924;12.204;2022-08-02T01:57:23;2.88;;;1.67;;
12451;SDS011;6291;48.924;12.204;2022-08-02T02:02:30;2.50;;;1.67;;
12451;SDS011;6291;48.924;12.204;2022-08-02T02:07:35;2.80;;;1.50;;
12451;SDS011;6291;48.924;12.204;2022-08-02T02:12:40;3.95;;;1.88;;
12451;SDS011;6291;48.924;12.204;2022-08-02T02:17:47;3.30;;;2.15;;
12451;SDS011;6291;48.924;12.204;2022-08-02T02:23:13;2.03;;;1.67;;
12451;SDS011;6291;48.924;12.204;2022-08-02T02:28:25;3.15;;;1.80;;
12451;SDS011;6291;48.924;12.204;2022-08-02T02:33:32;4.78;;;1.77;;
12451;SDS011;6291;48.924;12.204;2022-08-02T02:38:38;3.13;;;2.08;;
12451;SDS011;6291;48.924;12.204;2022-08-02T02:43:42;1.70;;;1.45;;
12451;SDS011;6291;48.924;12.204;2022-08-02T02:48:49;3.53;;;2.17;;
12451;SDS011;6291;48.924;12.204;2022-08-02T02:53:54;4.03;;;2.13;;
12451;SDS011;6291;48.924;12.204;2022-08-02T02:59:19;2.92;;;1.90;;
12451;SDS011;6291;48.924;12.204;2022-08-02T03:04:24;2.45;;;2.25;;
12451;SDS011;6291;48.924;12.204;2022-08-02T03:09:49;2.10;;;1.92;;
12451;SDS011;6291;48.924;12.204;2022-08-02T03:14:56;1.92;;;1.52;;
12451;SDS011;6291;48.924;12.204;2022-08-02T03:20:01;1.88;;;1.73;;
12451;SDS011;6291;48.924;12.204;2022-08-02T03:25:09;2.97;;;2.03;;
12451;SDS011;6291;48.924;12.204;2022-08-02T03:30:13;2.80;;;1.73;;
12451;SDS011;6291;48.924;12.204;2022-08-02T03:35:19;2.92;;;2.15;;
12451;SDS011;6291;48.924;12.204;2022-08-02T03:40:25;2.60;;;2.13;;
12451;SDS011;6291;48.924;12.204;2022-08-02T03:45:29;2.88;;;2.05;;
12451;SDS011;6291;48.924;12.204;2022-08-02T03:50:36;3.05;;;2.17;;
12451;SDS011;6291;48.924;12.204;2022-08-02T03:55:41;3.63;;;2.20;;
12451;SDS011;6291;48.924;12.204;2022-08-02T04:00:44;2.25;;;2.05;;
12451;SDS011;6291;48.924;12.204;2022-08-02T04:05:52;3.22;;;1.88;;
12451;SDS011;6291;48.924;12.204;2022-08-02T04:11:04;2.45;;;2.00;;
12451;SDS011;6291;48.924;12.204;2022-08-02T04:16:30;2.38;;;2.15;;
12451;SDS011;6291;48.924;12.204;2022-08-02T04:21:43;2.05;;;1.67;;
12451;SDS011;6291;48.924;12.204;2022-08-02T04:26:53;2.28;;;1.83;;
12451;SDS011;6291;48.924;12.204;2022-08-02T04:32:07;2.40;;;1.80;;
12451;SDS011;6291;48.924;12.204;2022-08-02T04:37:13;2.15;;;1.92;;
12451;SDS011;6291;48.924;12.204;2022-08-02T04:42:20;3.15;;;1.90;;
12451;SDS011;6291;48.924;12.204;2022-08-02T04:47:24;3.03;;;1.75;;
12451;SDS011;6291;48.924;12.204;2022-08-02T04:52:49;3.60;;;1.92;;
12451;SDS011;6291;48.924;12.204;2022-08-02T04:57:52;2.20;;;2.00;;
12451;SDS011;6291;48.924;12.204;2022-08-02T05:02:59;2.95;;;2.15;;
12451;SDS011;6291;48.924;12.204;2022-08-02T05:08:04;1.90;;;1.50;;
12451;SDS011;6291;48.924;12.204;2022-08-02T05:13:08;4.47;;;2.00;;
12451;SDS011;6291;48.924;12.204;2022-08-02T05:18:11;2.30;;;2.10;;
12451;SDS011;6291;48.924;12.204;2022-08-02T05:23:16;2.45;;;2.00;;
12451;SDS011;6291;48.924;12.204;2022-08-02T05:28:19;2.00;;;1.73;;
12451;SDS011;6291;48.924;12.204;2022-08-02T05:33:22;1.67;;;1.42;;
12451;SDS011;6291;48.924;12.204;2022-08-02T05:38:27;1.90;;;1.40;;
12451;SDS011;6291;48.924;12.204;2022-08-02T05:43:37;2.25;;;1.60;;
12451;SDS011;6291;48.924;12.204;2022-08-02T05:48:40;2.53;;;1.30;;
12451;SDS011;6291;48.924;12.204;2022-08-02T05:53:48;1.95;;;1.38;;
12451;SDS011;6291;48.924;12.204;2022-08-02T05:58:55;1.90;;;1.70;;
12451;SDS011;6291;48.924;12.204;2022-08-02T06:04:04;2.83;;;1.65;;
12451;SDS011;6291;48.924;12.204;2022-08-02T06:09:14;2.42;;;1.55;;
12451;SDS011;6291;48.924;12.204;2022-08-02T06:14:27;2.53;;;1.50;;
12451;SDS011;6291;48.924;12.204;2022-08-02T06:19:32;1.65;;;1.50;;
12451;SDS011;6291;48.924;12.204;2022-08-02T06:24:54;2.43;;;1.60;;
12451;SDS011;6291;48.924;12.204;2022-08-02T06:29:58;2.22;;;1.60;;
12451;SDS011;6291;48.924;12.204;2022-08-02T06:35:02;2.40;;;1.27;;
12451;SDS011;6291;48.924;12.204;2022-08-02T06:40:10;2.15;;;1.40;;
12451;SDS011;6291;48.924;12.204;2022-08-02T06:45:20;1.80;;;1.30;;
12451;SDS011;6291;48.924;12.204;2022-08-02T06:50:23;2.30;;;1.48;;
12451;SDS011;6291;48.924;12.204;2022-08-02T06:55:28;1.95;;;1.23;;
12451;SDS011;6291;48.924;12.204;2022-08-02T07:00:44;2.00;;;1.50;;
12451;SDS011;6291;48.924;12.204;2022-08-02T07:05:47;2.23;;;1.50;;
12451;SDS011;6291;48.924;12.204;2022-08-02T07:10:52;4.00;;;2.28;;
12451;SDS011;6291;48.924;12.204;2022-08-02T07:15:58;2.00;;;1.30;;
12451;SDS011;6291;48.924;12.204;2022-08-02T07:21:02;1.73;;;1.20;;
12451;SDS011;6291;48.924;12.204;2022-08-02T07:26:10;1.27;;;1.17;;
12451;SDS011;6291;48.924;12.204;2022-08-02T07:31:14;2.85;;;1.45;;
12451;SDS011;6291;48.924;12.204;2022-08-02T07:36:17;3.50;;;1.40;;
12451;SDS011;6291;48.924;12.204;2022-08-02T07:41:24;2.45;;;1.40;;
12451;SDS011;6291;48.924;12.204;2022-08-02T07:46:28;3.00;;;1.50;;
12451;SDS011;6291;48.924;12.204;2022-08-02T07:51:33;1.40;;;1.30;;
12451;SDS011;6291;48.924;12.204;2022-08-02T07:56:38;2.00;;;1.40;;
12451;SDS011;6291;48.924;12.204;2022-08-02T08:01:41;2.05;;;1.33;;
12451;SDS011;6291;48.924;12.204;2022-08-02T08:06:46;2.30;;;1.50;;
12451;SDS011;6291;48.924;12.204;2022-08-02T08:11:53;2.37;;;1.43;;
12451;SDS011;6291;48.924;12.204;2022-08-02T08:16:58;2.90;;;1.60;;
12451;SDS011;6291;48.924;12.204;2022-08-02T08:22:01;2.50;;;1.50;;
12451;SDS011;6291;48.924;12.204;2022-08-02T08:27:07;1.45;;;1.20;;
12451;SDS011;6291;48.924;12.204;2022-08-02T08:32:15;3.72;;;1.48;;
12451;SDS011;6291;48.924;12.204;2022-08-02T08:37:19;1.38;;;1.27;;
12451;SDS011;6291;48.924;12.204;2022-08-02T08:42:23;2.10;;;1.45;;
12451;SDS011;6291;48.924;12.204;2022-08-02T08:47:30;1.55;;;1.23;;
12451;SDS011;6291;48.924;12.204;2022-08-02T08:52:39;1.90;;;1.17;;
12451;SDS011;6291;48.924;12.204;2022-08-02T08:57:45;1.63;;;1.30;;
12451;SDS011;6291;48.924;12.204;2022-08-02T09:02:49;1.43;;;1.03;;
12451;SDS011;6291;48.924;12.204;2022-08-02T09:07:52;2.10;;;1.13;;
12451;SDS011;6291;48.924;12.204;2022-08-02T09:13:05;3.07;;;1.10;;
12451;SDS011;6291;48.924;12.204;2022-08-02T09:18:29;2.53;;;1.00;;
12451;SDS011;6291;48.924;12.204;2022-08-02T09:23:34;2.08;;;1.20;;
12451;SDS011;6291;48.924;12.204;2022-08-02T09:28:40;1.75;;;1.00;;
12451;SDS011;6291;48.924;12.204;2022-08-02T09:33:49;1.80;;;1.23;;
12451;SDS011;6291;48.924;12.204;2022-08-02T09:38:54;1.20;;;1.10;;
12451;SDS011;6291;48.924;12.204;2022-08-02T09:44:01;1.30;;;1.10;;
12451;SDS011;6291;48.924;12.204;2022-08-02T09:49:08;2.30;;;1.10;;
12451;SDS011;6291;48.924;12.204;2022-08-02T09:54:15;2.20;;;1.20;;
12451;SDS011;6291;48.924;12.204;2022-08-02T09:59:21;1.05;;;1.00;;
12451;SDS011;6291;48.924;12.204;2022-08-02T10:04:27;2.20;;;1.10;;
12451;SDS011;6291;48.924;12.204;2022-08-02T10:09:32;1.38;;;1.20;;
12451;SDS011;6291;48.924;12.204;2022-08-02T10:14:43;1.52;;;1.38;;
12451;SDS011;6291;48.924;12.204;2022-08-02T10:19:47;1.80;;;1.00;;
12451;SDS011;6291;48.924;12.204;2022-08-02T10:25:04;1.07;;;0.97;;
12451;SDS011;6291;48.924;12.204;2022-08-02T10:30:11;3.00;;;1.10;;
12451;SDS011;6291;48.924;12.204;2022-08-02T10:35:16;1.08;;;1.00;;
12451;SDS011;6291;48.924;12.204;2022-08-02T10:40:41;1.70;;;1.20;;
12451;SDS011;6291;48.924;12.204;2022-08-02T10:45:50;1.60;;;1.10;;
12451;SDS011;6291;48.924;12.204;2022-08-02T10:50:54;0.93;;;0.90;;
12451;SDS011;6291;48.924;12.204;2022-08-02T10:55:58;1.50;;;1.00;;
12451;SDS011;6291;48.924;12.204;2022-08-02T11:01:07;1.73;;;1.10;;
12451;SDS011;6291;48.924;12.204;2022-08-02T11:12:12;1.55;;;1.20;;
12451;SDS011;6291;48.924;12.204;2022-08-02T11:17:18;1.70;;;1.10;;
12451;SDS011;6291;48.924;12.204;2022-08-02T11:22:22;1.30;;;1.00;;
12451;SDS011;6291;48.924;12.204;2022-08-02T11:27:26;1.10;;;0.97;;
12451;SDS011;6291;48.924;12.204;2022-08-02T11:32:33;1.67;;;1.00;;
12451;SDS011;6291;48.924;12.204;2022-08-02T11:37:37;1.10;;;1.00;;
12451;SDS011;6291;48.924;12.204;2022-08-02T11:42:43;1.00;;;0.93;;
12451;SDS011;6291;48.924;12.204;2022-08-02T11:47:50;0.90;;;0.90;;
12451;SDS011;6291;48.924;12.204;2022-08-02T11:52:54;1.60;;;1.02;;
12451;SDS011;6291;48.924;12.204;2022-08-02T11:57:58;1.35;;;1.10;;
12451;SDS011;6291;48.924;12.204;2022-08-02T12:03:07;1.50;;;1.00;;
12451;SDS011;6291;48.924;12.204;2022-08-02T12:08:10;1.17;;;1.00;;
12451;SDS011;6291;48.924;12.204;2022-08-02T12:13:13;1.08;;;1.00;;
12451;SDS011;6291;48.924;12.204;2022-08-02T12:18:20;1.30;;;1.00;;
12451;SDS011;6291;48.924;12.204;2022-08-02T12:23:42;1.20;;;1.00;;
12451;SDS011;6291;48.924;12.204;2022-08-02T12:29:01;0.95;;;0.93;;
12451;SDS011;6291;48.924;12.204;2022-08-02T12:34:12;1.90;;;0.95;;
12451;SDS011;6291;48.924;12.204;2022-08-02T12:39:17;1.10;;;1.00;;
12451;SDS011;6291;48.924;12.204;2022-08-02T12:44:21;1.80;;;0.90;;
12451;SDS011;6291;48.924;12.204;2022-08-02T12:49:26;1.20;;;1.10;;
12451;SDS011;6291;48.924;12.204;2022-08-02T12:54:37;1.30;;;0.90;;
12451;SDS011;6291;48.924;12.204;2022-08-02T12:59:43;1.52;;;0.90;;
12451;SDS011;6291;48.924;12.204;2022-08-02T13:04:53;2.00;;;1.00;;
12451;SDS011;6291;48.924;12.204;2022-08-02T13:10:01;1.70;;;0.90;;
12451;SDS011;6291;48.924;12.204;2022-08-02T13:15:05;2.03;;;1.58;;
12451;SDS011;6291;48.924;12.204;2022-08-02T13:20:30;0.88;;;0.77;;
12451;SDS011;6291;48.924;12.204;2022-08-02T13:25:34;1.10;;;0.90;;
12451;SDS011;6291;48.924;12.204;2022-08-02T13:30:38;2.13;;;0.90;;
12451;SDS011;6291;48.924;12.204;2022-08-02T13:35:43;0.80;;;0.80;;
12451;SDS011;6291;48.924;12.204;2022-08-02T13:40:47;2.50;;;2.10;;
12451;SDS011;6291;48.924;12.204;2022-08-02T13:46:08;1.17;;;0.88;;
12451;SDS011;6291;48.924;12.204;2022-08-02T13:51:12;0.82;;;0.75;;
12451;SDS011;6291;48.924;12.204;2022-08-02T13:56:16;2.33;;;1.00;;
12451;SDS011;6291;48.924;12.204;2022-08-02T14:01:19;1.20;;;0.90;;
12451;SDS011;6291;48.924;12.204;2022-08-02T14:06:24;0.80;;;0.80;;
12451;SDS011;6291;48.924;12.204;2022-08-02T14:11:28;1.30;;;0.77;;
12451;SDS011;6291;48.924;12.204;2022-08-02T14:16:32;0.82;;;0.80;;
12451;SDS011;6291;48.924;12.204;2022-08-02T14:21:36;1.07;;;0.80;;
12451;SDS011;6291;48.924;12.204;2022-08-02T14:26:48;2.47;;;1.13;;
12451;SDS011;6291;48.924;12.204;2022-08-02T14:31:51;0.90;;;0.80;;
12451;SDS011;6291;48.924;12.204;2022-08-02T14:36:57;1.70;;;1.00;;
12451;SDS011;6291;48.924;12.204;2022-08-02T14:42:03;2.60;;;1.00;;
12451;SDS011;6291;48.924;12.204;2022-08-02T14:47:08;1.73;;;1.00;;
12451;SDS011;6291;48.924;12.204;2022-08-02T14:52:13;1.37;;;1.10;;
12451;SDS011;6291;48.924;12.204;2022-08-02T14:57:16;1.50;;;1.10;;
12451;SDS011;6291;48.924;12.204;2022-08-02T15:02:20;2.25;;;1.42;;
12451;SDS011;6291;48.924;12.204;2022-08-02T15:07:25;1.10;;;1.00;;
12451;SDS011;6291;48.924;12.204;2022-08-02T15:12:29;1.90;;;1.00;;
12451;SDS011;6291;48.924;12.204;2022-08-02T15:17:33;1.15;;;0.95;;
12451;SDS011;6291;48.924;12.204;2022-08-02T15:22:38;1.20;;;1.00;;
12451;SDS011;6291;48.924;12.204;2022-08-02T15:27:42;1.40;;;0.90;;
12451;SDS011;6291;48.924;12.204;2022-08-02T15:32:46;0.93;;;0.90;;
12451;SDS011;6291;48.924;12.204;2022-08-02T15:37:55;1.10;;;0.80;;
12451;SDS011;6291;48.924;12.204;2022-08-02T15:42:58;1.10;;;1.00;;
12451;SDS011;6291;48.924;12.204;2022-08-02T15:48:02;1.30;;;1.00;;
12451;SDS011;6291;48.924;12.204;2022-08-02T15:53:07;2.10;;;1.10;;
12451;SDS011;6291;48.924;12.204;2022-08-02T15:58:11;4.05;;;2.75;;
12451;SDS011;6291;48.924;12.204;2022-08-02T16:03:18;1.98;;;1.10;;
12451;SDS011;6291;48.924;12.204;2022-08-02T16:08:23;1.00;;;0.90;;
12451;SDS011;6291;48.924;12.204;2022-08-02T16:13:27;1.88;;;1.00;;
12451;SDS011;6291;48.924;12.204;2022-08-02T16:18:54;1.73;;;0.80;;
12451;SDS011;6291;48.924;12.204;2022-08-02T16:23:59;2.13;;;0.90;;
12451;SDS011;6291;48.924;12.204;2022-08-02T16:29:03;1.45;;;0.95;;
12451;SDS011;6291;48.924;12.204;2022-08-02T16:34:07;1.00;;;0.90;;
12451;SDS011;6291;48.924;12.204;2022-08-02T16:39:12;1.08;;;0.90;;
12451;SDS011;6291;48.924;12.204;2022-08-02T16:44:15;1.05;;;0.82;;
12451;SDS011;6291;48.924;12.204;2022-08-02T16:49:29;1.00;;;0.88;;
12451;SDS011;6291;48.924;12.204;2022-08-02T16:54:54;2.37;;;0.93;;
12451;SDS011;6291;48.924;12.204;2022-08-02T16:59:58;1.42;;;1.00;;
12451;SDS011;6291;48.924;12.204;2022-08-02T17:05:01;0.93;;;0.90;;
12451;SDS011;6291;48.924;12.204;2022-08-02T17:10:07;1.20;;;1.00;;
12451;SDS011;6291;48.924;12.204;2022-08-02T17:15:10;2.13;;;1.73;;
12451;SDS011;6291;48.924;12.204;2022-08-02T17:20:34;1.20;;;1.10;;
12451;SDS011;6291;48.924;12.204;2022-08-02T17:25:41;2.03;;;1.03;;
12451;SDS011;6291;48.924;12.204;2022-08-02T17:30:52;1.93;;;1.10;;
12451;SDS011;6291;48.924;12.204;2022-08-02T17:35:56;1.10;;;0.93;;
12451;SDS011;6291;48.924;12.204;2022-08-02T17:41:01;2.40;;;1.20;;
12451;SDS011;6291;48.924;12.204;2022-08-02T17:46:04;1.60;;;1.20;;
12451;SDS011;6291;48.924;12.204;2022-08-02T17:51:08;1.17;;;1.00;;
12451;SDS011;6291;48.924;12.204;2022-08-02T17:56:13;2.05;;;1.67;;
12451;SDS011;6291;48.924;12.204;2022-08-02T18:01:17;1.85;;;0.80;;
12451;SDS011;6291;48.924;12.204;2022-08-02T18:06:24;3.17;;;2.40;;
12451;SDS011;6291;48.924;12.204;2022-08-02T18:11:29;1.73;;;1.20;;
12451;SDS011;6291;48.924;12.204;2022-08-02T18:16:53;1.07;;;0.90;;
12451;SDS011;6291;48.924;12.204;2022-08-02T18:21:57;1.23;;;0.82;;
12451;SDS011;6291;48.924;12.204;2022-08-02T18:27:04;1.00;;;0.90;;
12451;SDS011;6291;48.924;12.204;2022-08-02T18:32:07;1.67;;;0.93;;
12451;SDS011;6291;48.924;12.204;2022-08-02T18:37:12;1.00;;;0.85;;
12451;SDS011;6291;48.924;12.204;2022-08-02T18:42:19;2.63;;;0.90;;
12451;SDS011;6291;48.924;12.204;2022-08-02T18:47:22;1.10;;;0.97;;
12451;SDS011;6291;48.924;12.204;2022-08-02T18:52:33;1.73;;;0.90;;
12451;SDS011;6291;48.924;12.204;2022-08-02T18:57:42;1.40;;;1.00;;
12451;SDS011;6291;48.924;12.204;2022-08-02T19:03:05;1.55;;;0.90;;
12451;SDS011;6291;48.924;12.204;2022-08-02T19:08:10;1.10;;;0.90;;
12451;SDS011;6291;48.924;12.204;2022-08-02T19:13:14;2.17;;;1.00;;
12451;SDS011;6291;48.924;12.204;2022-08-02T19:18:18;1.42;;;0.98;;
12451;SDS011;6291;48.924;12.204;2022-08-02T19:23:30;2.10;;;1.00;;
12451;SDS011;6291;48.924;12.204;2022-08-02T19:28:35;1.20;;;1.10;;
12451;SDS011;6291;48.924;12.204;2022-08-02T19:33:41;1.60;;;1.20;;
12451;SDS011;6291;48.924;12.204;2022-08-02T19:39:04;1.15;;;1.05;;
12451;SDS011;6291;48.924;12.204;2022-08-02T19:44:09;1.87;;;0.97;;
12451;SDS011;6291;48.924;12.204;2022-08-02T19:49:29;3.78;;;1.40;;
12451;SDS011;6291;48.924;12.204;2022-08-02T19:54:40;1.50;;;1.05;;
12451;SDS011;6291;48.924;12.204;2022-08-02T20:00:06;2.15;;;1.10;;
12451;SDS011;6291;48.924;12.204;2022-08-02T20:05:14;2.20;;;1.17;;
12451;SDS011;6291;48.924;12.204;2022-08-02T20:10:24;1.80;;;1.10;;
12451;SDS011;6291;48.924;12.204;2022-08-02T20:15:29;1.52;;;1.08;;
12451;SDS011;6291;48.924;12.204;2022-08-02T20:20:52;1.23;;;0.98;;
12451;SDS011;6291;48.924;12.204;2022-08-02T20:25:56;1.60;;;1.20;;
12451;SDS011;6291;48.924;12.204;2022-08-02T20:31:04;3.28;;;1.50;;
12451;SDS011;6291;48.924;12.204;2022-08-02T20:36:09;2.25;;;1.30;;
12451;SDS011;6291;48.924;12.204;2022-08-02T20:41:15;1.43;;;1.33;;
12451;SDS011;6291;48.924;12.204;2022-08-02T20:46:23;2.22;;;1.30;;
12451;SDS011;6291;48.924;12.204;2022-08-02T20:51:27;1.50;;;1.40;;
12451;SDS011;6291;48.924;12.204;2022-08-02T20:56:34;2.40;;;1.40;;
12451;SDS011;6291;48.924;12.204;2022-08-02T21:01:40;1.60;;;1.40;;
12451;SDS011;6291;48.924;12.204;2022-08-02T21:06:58;4.10;;;1.50;;
12451;SDS011;6291;48.924;12.204;2022-08-02T21:12:03;2.30;;;1.50;;
12451;SDS011;6291;48.924;12.204;2022-08-02T21:17:14;2.75;;;1.40;;
12451;SDS011;6291;48.924;12.204;2022-08-02T21:22:37;3.00;;;1.58;;
12451;SDS011;6291;48.924;12.204;2022-08-02T21:27:45;2.53;;;1.52;;
12451;SDS011;6291;48.924;12.204;2022-08-02T21:32:55;2.70;;;1.50;;
12451;SDS011;6291;48.924;12.204;2022-08-02T21:38:00;3.25;;;1.52;;
12451;SDS011;6291;48.924;12.204;2022-08-02T21:43:03;2.55;;;1.40;;
12451;SDS011;6291;48.924;12.204;2022-08-02T21:48:10;3.10;;;1.57;;
12451;SDS011;6291;48.924;12.204;2022-08-02T21:53:14;3.27;;;1.60;;
12451;SDS011;6291;48.924;12.204;2022-08-02T21:58:37;2.70;;;1.58;;
12451;SDS011;6291;48.924;12.204;2022-08-02T22:03:42;2.90;;;1.63;;
12451;SDS011;6291;48.924;12.204;2022-08-02T22:08:56;2.85;;;1.60;;
12451;SDS011;6291;48.924;12.204;2022-08-02T22:13:59;3.90;;;1.67;;
12451;SDS011;6291;48.924;12.204;2022-08-02T22:19:04;4.13;;;1.80;;
12451;SDS011;6291;48.924;12.204;2022-08-02T22:24:08;1.98;;;1.60;;
12451;SDS011;6291;48.924;12.204;2022-08-02T22:29:19;3.70;;;1.60;;
12451;SDS011;6291;48.924;12.204;2022-08-02T22:34:24;2.13;;;1.58;;
12451;SDS011;6291;48.924;12.204;2022-08-02T22:39:47;1.83;;;1.55;;
12451;SDS011;6291;48.924;12.204;2022-08-02T22:45:09;2.35;;;1.92;;
12451;SDS011;6291;48.924;12.204;2022-08-02T22:50:14;4.18;;;1.55;;
12451;SDS011;6291;48.924;12.204;2022-08-02T22:55:19;1.98;;;1.65;;
12451;SDS011;6291;48.924;12.204;2022-08-02T23:00:23;2.23;;;1.50;;
12451;SDS011;6291;48.924;12.204;2022-08-02T23:05:29;2.42;;;1.83;;
12451;SDS011;6291;48.924;12.204;2022-08-02T23:10:32;2.10;;;1.90;;
12451;SDS011;6291;48.924;12.204;2022-08-02T23:15:37;2.47;;;1.90;;
12451;SDS011;6291;48.924;12.204;2022-08-02T23:21:01;2.85;;;2.00;;
12451;SDS011;6291;48.924;12.204;2022-08-02T23:26:05;2.33;;;1.58;;
12451;SDS011;6291;48.924;12.204;2022-08-02T23:36:32;2.10;;;1.90;;
12451;SDS011;6291;48.924;12.204;2022-08-02T23:41:36;2.20;;;2.00;;
12451;SDS011;6291;48.924;12.204;2022-08-02T23:46:39;2.20;;;1.95;;
12451;SDS011;6291;48.924;12.204;2022-08-02T23:51:46;1.75;;;1.65;;
12451;SDS011;6291;48.924;12.204;2022-08-02T23:56:50;2.63;;;2.33;;
